Details From EGKB - Biggin Hill
To ETNG - GEILENKIRCHEN
Flight Number -
Tags generated
Created
Modified
Stats Distance 228 nm / 423 km
Max Altitude 27,000 ft / 8,230 m
Waypoints 4
Social Downloads 0
Likes 0
Share VATSIM

Download

Looking for another format? Having issues loading an existing format? Contact us
Advertisement - Login to hide

Notes

Basic altitude profile: - Ascent Rate: 2500ft/min - Ascent Speed: 250kts - Cruise Altitude: 35000ft - Cruise Speed: 420kts - Descent Rate: 1500ft/min - Descent Speed: 250kts Options: - Use NATs: yes - Use PACOTS: yes - Use low airways: yes - Use high airways: yes

Route

EGKB BULAM UL610 LUMEN ETNG

ID Type Via Altitude Latitude Longitude Leg Dist Tot Dist Heading (true) Name
O EGKB APT - 0 ft / 0 m 51.32671˚ 0.03288˚ - 0 nm - Biggin Hill
BULAM FIX - 27,000 ft / 8,230 m 51.35250˚ 2.75028˚ 101 nm 101 nm 88° / 90° -
LUMEN FIX UL610 (AWY-HI) 21,600 ft / 6,584 m 51.26946˚ 3.40657˚ 25 nm 127 nm 101° / 102° -
O ETNG APT - 0 ft / 0 m 50.96083˚ 6.04175˚ 101 nm 228 nm 100° / 102° GEILENKIRCHEN

Altitude Profile

Advertisement - Login to hide

Weather


0- 5 10 15 20 25 30 35+ Temperature / ° C

Clouds and Precipitation
Forecast for 2017-12-18 00:00 UTC. Updated an hour ago

Ground ~20,000 ft ~40,000 ft Winds

EGKB

Details ICAO EGKB (BQH)
Name Biggin Hill
Region United Kingdom
Timezone Europe/London (UTC+0.0)
Stats Elevation 598 ft / 182 m (AMSL)
Location 51.326710° 0.032876°
Runways 2
Magnetic Variation 0.372° W

METAR

EGKB 172120Z 27010KT 240V300 2500 -DZ BR BKN003 09/09 Q1019 REDZ

Decode

TAF

Not found

Departure Runways

ID Width Length Bearing (true) Bearing (mag) Surface Threshold Offset Overrun Length
03 148 ft / 45 m 5,915 ft / 1,803 m 25.53° 25.90° Asphalt 804 ft / 245 m 0 ft / 0 m
11 59 ft / 18 m 2,579 ft / 786 m 105.47° 105.84° Asphalt 0 ft / 0 m 0 ft / 0 m
21 148 ft / 45 m 5,915 ft / 1,803 m 205.53° 205.90° Asphalt 0 ft / 0 m 0 ft / 0 m
29 59 ft / 18 m 2,579 ft / 786 m 285.48° 285.85° Asphalt 0 ft / 0 m 0 ft / 0 m

ETNG

Details ICAO ETNG (GKE)
Name GEILENKIRCHEN
Region Germany - Military
Timezone Europe/Berlin (UTC+1.0)
Stats Elevation 296 ft / 90 m (AMSL)
Location 50.960833° 6.041750°
Runways 1
Magnetic Variation 1.598° E

METAR

ETNG 172150Z 22010G20KT 9999 -SN SCT020 BKN030 03/M01 Q1021

Decode

TAF

Not found

Destination Runways

ID Width Length Bearing (true) Bearing (mag) Surface Threshold Offset Overrun Length
09 147 ft / 45 m 9,980 ft / 3,042 m 90.74° 89.14° Concrete 491 ft / 150 m 0 ft / 0 m
27 147 ft / 45 m 9,980 ft / 3,042 m 270.77° 269.17° Concrete 491 ft / 150 m 0 ft / 0 m

Approach Navaids

Runway Type Ident Frequency Range Bearing (true) Bearing (mag) Slope Elevation
27 Localiser GIX 110.10 MHz 18 nm / 33 km 270.57° 268.97° - 263 ft / 80 m (AMSL)
27 Glidescope GIX 110.10 MHz 10 nm / 19 km 270.76° 269.16° 3.00° 289 ft / 88 m (AMSL)

Popular Alternatives